createdAt,value
2018-09-25T00:02:16.448Z," 8.91"
2018-09-25T00:12:13.640Z," 8.91"
2018-09-25T00:17:08.881Z," 8.84"
2018-09-25T00:22:05.935Z," 8.84"
2018-09-25T00:27:02.427Z," 8.74"
2018-09-25T00:31:57.935Z," 8.79"
2018-09-25T00:36:53.664Z," 8.71"
2018-09-25T00:41:49.387Z," 8.69"
2018-09-25T00:46:45.146Z," 8.70"
2018-09-25T00:51:40.962Z," 8.73"
2018-09-25T00:56:36.433Z," 8.58"
2018-09-25T01:01:32.222Z," 8.71"
2018-09-25T01:06:28.389Z," 8.70"
2018-09-25T01:11:24.113Z," 8.64"
2018-09-25T01:16:19.957Z," 8.63"
2018-09-25T01:21:16.793Z," 8.58"
2018-09-25T01:26:12.295Z," 8.58"
2018-09-25T01:31:08.031Z," 8.55"
2018-09-25T01:36:04.684Z," 8.60"
2018-09-25T01:41:01.173Z," 8.49"
2018-09-25T01:45:56.634Z," 8.49"
2018-09-25T01:50:53.120Z," 8.34"
2018-09-25T01:55:49.884Z," 8.30"
2018-09-25T02:00:46.056Z," 8.30"
2018-09-25T02:05:42.248Z," 8.20"
2018-09-25T02:10:37.847Z," 8.33"
2018-09-25T02:15:34.298Z," 8.41"
2018-09-25T02:20:30.998Z," 8.28"
2018-09-25T02:25:27.733Z," 8.18"
2018-09-25T02:30:23.969Z," 8.27"
2018-09-25T02:35:19.333Z," 8.24"
2018-09-25T02:40:15.152Z," 8.09"
2018-09-25T02:45:10.891Z," 8.13"
2018-09-25T02:50:06.816Z," 7.90"
2018-09-25T02:55:02.780Z," 7.87"
2018-09-25T02:59:58.419Z," 7.87"
2018-09-25T03:04:54.270Z," 7.93"
2018-09-25T03:09:51.065Z," 7.90"
2018-09-25T03:14:46.692Z," 7.87"
2018-09-25T03:19:43.422Z," 7.77"
2018-09-25T03:24:39.441Z," 7.70"
2018-09-25T03:29:35.296Z," 7.63"
2018-09-25T03:34:30.927Z," 7.56"
2018-09-25T03:39:27.756Z," 7.36"
2018-09-25T03:44:23.064Z," 7.40"
2018-09-25T03:49:18.890Z," 7.17"
2018-09-25T03:54:14.417Z," 7.17"
2018-09-25T03:59:09.998Z," 7.21"
2018-09-25T04:04:05.528Z," 7.20"
2018-09-25T04:09:02.534Z," 7.14"
2018-09-25T04:13:57.948Z," 7.15"
2018-09-25T04:18:53.668Z," 7.07"
2018-09-25T04:23:49.388Z," 7.18"
2018-09-25T04:28:45.104Z," 7.06"
2018-09-25T04:33:40.698Z," 7.07"
2018-09-25T04:38:36.521Z," 7.06"
2018-09-25T04:43:32.232Z," 7.02"
2018-09-25T04:48:28.172Z," 6.96"
2018-09-25T04:53:23.905Z," 6.88"
2018-09-25T04:58:20.605Z," 6.93"
2018-09-25T05:03:16.256Z," 6.97"
2018-09-25T05:08:13.217Z," 6.82"
2018-09-25T05:13:09.582Z," 6.93"
2018-09-25T05:18:04.791Z," 6.89"
2018-09-25T05:23:00.587Z," 6.88"
2018-09-25T05:27:55.974Z," 6.96"
2018-09-25T05:32:51.579Z," 7.10"
2018-09-25T05:37:47.303Z," 7.02"
2018-09-25T05:42:43.296Z," 6.87"
2018-09-25T05:47:38.797Z," 6.78"
2018-09-25T05:52:34.403Z," 7.05"
2018-09-25T05:57:30.274Z," 7.07"
2018-09-25T06:02:26.419Z," 7.18"
2018-09-25T06:07:22.404Z," 7.32"
2018-09-25T06:12:18.212Z," 7.48"
2018-09-25T06:17:14.086Z," 7.48"
2018-09-25T06:22:10.846Z," 7.50"
2018-09-25T06:27:06.336Z," 7.57"
2018-09-25T06:32:02.235Z," 7.60"
2018-09-25T06:36:59.995Z," 7.82"
2018-09-25T06:41:55.567Z," 7.94"
2018-09-25T06:46:51.671Z," 8.28"
2018-09-25T06:51:47.353Z," 8.24"
2018-09-25T06:56:43.282Z," 8.26"
2018-09-25T07:01:39.090Z," 8.33"
2018-09-25T07:06:35.278Z," 8.45"
2018-09-25T07:11:31.032Z," 8.55"
2018-09-25T07:16:26.824Z," 8.63"
2018-09-25T07:21:23.736Z," 8.66"
2018-09-25T07:26:20.273Z," 8.79"
2018-09-25T07:31:15.827Z," 8.94"
2018-09-25T07:36:11.958Z," 9.10"
2018-09-25T07:41:07.856Z," 9.41"
2018-09-25T07:46:04.846Z," 9.68"
2018-09-25T07:51:01.448Z," 9.80"
2018-09-25T07:55:57.578Z," 9.98"
2018-09-25T08:00:54.505Z," 9.97"
2018-09-25T08:05:52.140Z,10.33
2018-09-25T08:10:48.002Z,10.48
2018-09-25T08:15:44.196Z,10.64
2018-09-25T08:20:40.890Z,10.76
2018-09-25T08:25:36.163Z,10.81
2018-09-25T08:30:32.130Z,10.82
2018-09-25T08:40:28.081Z,10.99
2018-09-25T08:45:23.882Z,11.05
2018-09-25T08:50:19.512Z,11.26
2018-09-25T08:55:16.135Z,11.48
2018-09-25T09:00:12.165Z,11.55
2018-09-25T09:05:08.272Z,11.77
2018-09-25T09:10:04.751Z,11.80
2018-09-25T09:15:00.371Z,12.00
2018-09-25T09:19:56.752Z,12.17
2018-09-25T09:24:52.481Z,12.45
2018-09-25T09:29:48.773Z,12.46
2018-09-25T09:34:46.059Z,12.57
2018-09-25T09:39:41.692Z,12.53
2018-09-25T09:44:38.345Z,12.62
2018-09-25T09:49:35.268Z,12.61
2018-09-25T09:54:31.938Z,12.65
2018-09-25T09:59:29.778Z,12.94
2018-09-25T10:04:26.069Z,13.31
2018-09-25T10:09:22.499Z,13.52
2018-09-25T10:14:18.591Z,13.72
2018-09-25T10:19:14.545Z,13.74
2018-09-25T10:24:11.853Z,13.63
2018-09-25T10:29:07.539Z,13.72
2018-09-25T10:34:04.431Z,13.81
2018-09-25T10:38:59.828Z,13.79
2018-09-25T10:43:56.850Z,13.85
2018-09-25T10:48:53.579Z,13.81
2018-09-25T10:53:49.184Z,13.93
2018-09-25T10:58:46.155Z,14.00
2018-09-25T11:03:42.135Z,14.17
2018-09-25T11:08:38.730Z,14.68
2018-09-25T11:13:36.468Z,15.54
2018-09-25T11:18:35.454Z,16.58
2018-09-25T11:23:31.327Z,17.12
2018-09-25T11:28:27.500Z,17.16
2018-09-25T11:33:23.542Z,16.94
2018-09-25T11:38:20.003Z,17.24
2018-09-25T11:43:16.563Z,17.22
2018-09-25T11:48:13.629Z,16.96
2018-09-25T11:53:09.760Z,17.05
2018-09-25T11:58:06.101Z,17.08
2018-09-25T12:03:02.731Z,17.27
2018-09-25T12:07:59.123Z,17.60
2018-09-25T12:12:54.065Z,16.97
2018-09-25T12:17:49.810Z,16.47
2018-09-25T12:22:45.987Z,16.04
2018-09-25T12:27:42.018Z,16.02
2018-09-25T12:32:37.644Z,15.88
2018-09-25T12:37:34.201Z,15.80
2018-09-25T12:42:29.417Z,15.75
2018-09-25T12:47:25.711Z,15.44
2018-09-25T12:52:21.175Z,15.37
2018-09-25T12:57:16.951Z,15.54
2018-09-25T13:02:14.119Z,15.47
2018-09-25T13:07:09.571Z,15.40
2018-09-25T13:12:06.600Z,15.47
2018-09-25T13:17:02.170Z,15.35
2018-09-25T13:21:59.130Z,15.28
2018-09-25T13:26:54.272Z,15.22
2018-09-25T13:31:50.074Z,15.21
2018-09-25T13:36:47.261Z,15.31
2018-09-25T13:46:45.557Z,15.17
2018-09-25T13:51:41.319Z,15.06
2018-09-25T13:56:37.070Z,15.14
2018-09-25T14:01:32.910Z,15.15
2018-09-25T14:06:29.418Z,15.15
2018-09-25T14:11:25.373Z,15.00
2018-09-25T14:16:21.002Z,14.92
2018-09-25T14:21:17.311Z,14.82
2018-09-25T14:26:13.097Z,15.03
2018-09-25T14:31:09.164Z,14.92
2018-09-25T14:36:06.637Z,14.84
2018-09-25T14:41:02.017Z,15.07
2018-09-25T14:45:58.043Z,15.10
2018-09-25T14:50:55.009Z,15.21
2018-09-25T14:55:51.701Z,15.24
2018-09-25T15:00:47.509Z,15.04
2018-09-25T15:05:43.388Z,15.03
2018-09-25T15:10:38.998Z,14.99
2018-09-25T15:15:34.926Z,15.00
2018-09-25T15:20:31.045Z,14.89
2018-09-25T15:25:26.571Z,14.92
2018-09-25T15:30:23.501Z,14.88
2018-09-25T15:35:19.309Z,14.86
2018-09-25T15:40:16.632Z,14.82
2018-09-25T15:45:12.569Z,14.79
2018-09-25T15:50:09.377Z,14.69
2018-09-25T15:55:04.917Z,14.60
2018-09-25T16:00:01.043Z,14.70
2018-09-25T16:04:57.852Z,14.55
2018-09-25T16:09:53.369Z,14.54
2018-09-25T16:14:49.197Z,14.63
2018-09-25T16:19:45.337Z,14.63
2018-09-25T16:24:40.994Z,14.68
2018-09-25T16:29:36.971Z,14.62
2018-09-25T16:34:33.681Z,14.60
2018-09-25T16:39:29.322Z,14.50
2018-09-25T16:44:25.570Z,14.53
2018-09-25T16:49:21.260Z,14.51
2018-09-25T16:54:17.395Z,14.50
2018-09-25T16:59:13.287Z,14.40
2018-09-25T17:04:09.610Z,14.36
2018-09-25T17:09:05.396Z,14.26
2018-09-25T17:14:01.272Z,14.29
2018-09-25T17:18:57.269Z,14.20
2018-09-25T17:23:53.007Z,14.04
2018-09-25T17:28:48.347Z,13.96
2018-09-25T17:33:44.731Z,13.75
2018-09-25T17:38:40.272Z,13.56
2018-09-25T17:43:36.167Z,13.31
2018-09-25T17:48:33.074Z,13.19
2018-09-25T17:53:28.365Z,13.09
2018-09-25T17:58:24.141Z,13.05
2018-09-25T18:03:19.894Z,13.08
2018-09-25T18:08:15.788Z,13.01
2018-09-25T18:13:11.909Z,12.90
2018-09-25T18:18:07.749Z,12.75
2018-09-25T18:23:03.518Z,12.85
2018-09-25T18:27:59.280Z,12.55
2018-09-25T18:32:55.150Z,12.43
2018-09-25T18:37:51.133Z,12.35
2018-09-25T18:42:46.959Z,12.18
2018-09-25T18:47:42.648Z,11.99
2018-09-25T18:52:38.570Z,11.84
2018-09-25T18:57:34.546Z,11.75
2018-09-25T19:02:30.113Z,11.66
2018-09-25T19:07:25.766Z,11.54
2018-09-25T19:12:22.470Z,11.44
2018-09-25T19:17:18.902Z,11.45
2018-09-25T19:22:15.338Z,11.32
2018-09-25T19:27:10.655Z,11.27
2018-09-25T19:32:07.762Z,11.32
2018-09-25T19:37:05.069Z,11.37
2018-09-25T19:42:02.106Z,11.32
2018-09-25T19:46:57.582Z,11.18
2018-09-25T19:51:53.808Z,11.02
2018-09-25T19:56:49.493Z,10.89
2018-09-25T20:01:45.091Z,10.81
2018-09-25T20:06:40.795Z,10.92
2018-09-25T20:11:37.912Z,10.86
2018-09-25T20:16:34.471Z,10.79
2018-09-25T20:21:31.012Z,10.81
2018-09-25T20:26:26.467Z,10.72
2018-09-25T20:31:22.125Z,10.67
2018-09-25T20:36:18.096Z,10.86
2018-09-25T20:41:14.066Z,10.79
2018-09-25T20:46:10.827Z,10.71
2018-09-25T20:51:06.442Z,10.76
2018-09-25T20:56:03.102Z,10.79
2018-09-25T21:00:58.689Z,10.84
2018-09-25T21:05:54.549Z,10.75
2018-09-25T21:10:50.955Z,10.64
2018-09-25T21:15:46.653Z,10.57
2018-09-25T21:20:43.140Z,10.56
2018-09-25T21:25:38.795Z,10.41
2018-09-25T21:30:34.954Z,10.46
2018-09-25T21:35:30.743Z,10.46
2018-09-25T21:40:26.272Z,10.49
2018-09-25T21:45:21.901Z,10.48
2018-09-25T21:50:18.503Z,10.44
2018-09-25T21:55:13.880Z,10.40
2018-09-25T22:00:09.710Z,10.25
2018-09-25T22:05:05.348Z,10.31
2018-09-25T22:10:02.248Z,10.34
2018-09-25T22:14:57.546Z,10.31
2018-09-25T22:19:53.312Z,10.23
2018-09-25T22:24:49.147Z,10.17
2018-09-25T22:29:45.106Z,10.13
2018-09-25T22:34:41.516Z,10.05
2018-09-25T22:39:37.097Z," 9.82"
2018-09-25T22:44:32.967Z," 9.84"
2018-09-25T22:49:28.527Z," 9.76"
2018-09-25T22:54:25.497Z," 9.80"
2018-09-25T22:59:21.918Z," 9.68"
2018-09-25T23:04:17.114Z," 9.58"
2018-09-25T23:09:12.761Z," 9.48"
2018-09-25T23:14:09.624Z," 9.28"
2018-09-25T23:19:04.984Z," 9.19"
2018-09-25T23:24:01.223Z," 9.34"
2018-09-25T23:28:57.642Z," 9.46"
2018-09-25T23:33:53.646Z," 9.54"
2018-09-25T23:38:49.423Z," 9.51"
2018-09-25T23:43:45.617Z," 9.68"
2018-09-25T23:48:41.617Z," 9.72"
2018-09-25T23:53:37.495Z," 9.58"
2018-09-25T23:58:34.890Z," 9.55"
